sensor_id;sensor_type;location;lat;lon;timestamp;P1;durP1;ratioP1;P2;durP2;ratioP2
7813;SDS011;3952;48.364;16.022;2023-07-20T00:02:10;12.33;;;5.10;;
7813;SDS011;3952;48.364;16.022;2023-07-20T00:04:39;8.03;;;4.77;;
7813;SDS011;3952;48.364;16.022;2023-07-20T00:07:06;7.80;;;4.70;;
7813;SDS011;3952;48.364;16.022;2023-07-20T00:09:33;6.70;;;4.43;;
7813;SDS011;3952;48.364;16.022;2023-07-20T00:12:00;7.80;;;4.43;;
7813;SDS011;3952;48.364;16.022;2023-07-20T00:14:28;4.40;;;4.10;;
7813;SDS011;3952;48.364;16.022;2023-07-20T00:16:55;5.13;;;4.73;;
7813;SDS011;3952;48.364;16.022;2023-07-20T00:19:22;4.83;;;4.43;;
7813;SDS011;3952;48.364;16.022;2023-07-20T00:21:51;4.17;;;3.87;;
7813;SDS011;3952;48.364;16.022;2023-07-20T00:24:19;4.63;;;4.33;;
7813;SDS011;3952;48.364;16.022;2023-07-20T00:26:46;4.30;;;4.00;;
7813;SDS011;3952;48.364;16.022;2023-07-20T00:29:13;4.27;;;4.00;;
7813;SDS011;3952;48.364;16.022;2023-07-20T00:31:40;4.37;;;3.97;;
7813;SDS011;3952;48.364;16.022;2023-07-20T00:34:08;4.40;;;4.10;;
7813;SDS011;3952;48.364;16.022;2023-07-20T00:36:36;4.13;;;3.83;;
7813;SDS011;3952;48.364;16.022;2023-07-20T00:39:04;3.93;;;3.73;;
7813;SDS011;3952;48.364;16.022;2023-07-20T00:41:32;3.97;;;3.77;;
7813;SDS011;3952;48.364;16.022;2023-07-20T00:43:59;4.20;;;3.90;;
7813;SDS011;3952;48.364;16.022;2023-07-20T00:46:26;4.53;;;4.13;;
7813;SDS011;3952;48.364;16.022;2023-07-20T00:48:53;4.20;;;3.90;;
7813;SDS011;3952;48.364;16.022;2023-07-20T00:51:21;4.73;;;4.43;;
7813;SDS011;3952;48.364;16.022;2023-07-20T00:53:49;4.83;;;4.20;;
7813;SDS011;3952;48.364;16.022;2023-07-20T00:56:18;4.60;;;4.27;;
7813;SDS011;3952;48.364;16.022;2023-07-20T00:58:45;4.43;;;4.03;;
7813;SDS011;3952;48.364;16.022;2023-07-20T01:01:13;4.50;;;4.10;;
7813;SDS011;3952;48.364;16.022;2023-07-20T01:03:40;4.40;;;4.10;;
7813;SDS011;3952;48.364;16.022;2023-07-20T01:06:09;4.73;;;4.33;;
7813;SDS011;3952;48.364;16.022;2023-07-20T01:08:46;4.83;;;4.43;;
7813;SDS011;3952;48.364;16.022;2023-07-20T01:11:26;4.40;;;4.10;;
7813;SDS011;3952;48.364;16.022;2023-07-20T01:14:01;5.03;;;4.57;;
7813;SDS011;3952;48.364;16.022;2023-07-20T01:16:30;4.43;;;4.13;;
7813;SDS011;3952;48.364;16.022;2023-07-20T01:18:58;4.43;;;4.07;;
7813;SDS011;3952;48.364;16.022;2023-07-20T01:21:27;4.63;;;4.33;;
7813;SDS011;3952;48.364;16.022;2023-07-20T01:24:13;5.13;;;4.80;;
7813;SDS011;3952;48.364;16.022;2023-07-20T01:27:00;5.03;;;4.73;;
7813;SDS011;3952;48.364;16.022;2023-07-20T01:30:01;4.73;;;4.33;;
7813;SDS011;3952;48.364;16.022;2023-07-20T01:32:39;4.70;;;4.40;;
7813;SDS011;3952;48.364;16.022;2023-07-20T01:35:08;4.77;;;4.30;;
7813;SDS011;3952;48.364;16.022;2023-07-20T01:37:39;5.07;;;4.57;;
7813;SDS011;3952;48.364;16.022;2023-07-20T01:40:08;5.13;;;4.40;;
7813;SDS011;3952;48.364;16.022;2023-07-20T01:42:37;3.80;;;3.60;;
7813;SDS011;3952;48.364;16.022;2023-07-20T01:45:04;4.50;;;4.10;;
7813;SDS011;3952;48.364;16.022;2023-07-20T01:47:32;4.20;;;4.00;;
7813;SDS011;3952;48.364;16.022;2023-07-20T01:50:00;4.73;;;4.37;;
7813;SDS011;3952;48.364;16.022;2023-07-20T01:52:28;4.87;;;4.47;;
7813;SDS011;3952;48.364;16.022;2023-07-20T01:54:55;4.53;;;4.13;;
7813;SDS011;3952;48.364;16.022;2023-07-20T01:57:22;4.93;;;3.80;;
7813;SDS011;3952;48.364;16.022;2023-07-20T01:59:49;4.13;;;3.83;;
7813;SDS011;3952;48.364;16.022;2023-07-20T02:02:16;4.27;;;4.03;;
7813;SDS011;3952;48.364;16.022;2023-07-20T02:04:44;4.37;;;4.07;;
7813;SDS011;3952;48.364;16.022;2023-07-20T02:07:12;4.20;;;3.90;;
7813;SDS011;3952;48.364;16.022;2023-07-20T02:09:39;4.13;;;3.73;;
7813;SDS011;3952;48.364;16.022;2023-07-20T02:12:07;3.93;;;3.63;;
7813;SDS011;3952;48.364;16.022;2023-07-20T02:14:34;4.53;;;3.80;;
7813;SDS011;3952;48.364;16.022;2023-07-20T02:17:02;3.80;;;3.60;;
7813;SDS011;3952;48.364;16.022;2023-07-20T02:19:29;4.07;;;3.87;;
7813;SDS011;3952;48.364;16.022;2023-07-20T02:21:57;4.37;;;4.07;;
7813;SDS011;3952;48.364;16.022;2023-07-20T02:24:25;3.77;;;3.57;;
7813;SDS011;3952;48.364;16.022;2023-07-20T02:26:52;4.23;;;3.80;;
7813;SDS011;3952;48.364;16.022;2023-07-20T02:29:20;4.33;;;4.03;;
7813;SDS011;3952;48.364;16.022;2023-07-20T02:31:47;4.23;;;3.93;;
7813;SDS011;3952;48.364;16.022;2023-07-20T02:34:14;4.00;;;3.70;;
7813;SDS011;3952;48.364;16.022;2023-07-20T02:36:41;4.80;;;4.40;;
7813;SDS011;3952;48.364;16.022;2023-07-20T02:39:08;4.37;;;4.07;;
7813;SDS011;3952;48.364;16.022;2023-07-20T02:41:37;3.90;;;3.60;;
7813;SDS011;3952;48.364;16.022;2023-07-20T02:44:04;4.40;;;4.00;;
7813;SDS011;3952;48.364;16.022;2023-07-20T02:46:31;4.47;;;4.07;;
7813;SDS011;3952;48.364;16.022;2023-07-20T02:49:00;4.50;;;4.10;;
7813;SDS011;3952;48.364;16.022;2023-07-20T02:51:27;4.50;;;4.20;;
7813;SDS011;3952;48.364;16.022;2023-07-20T02:53:54;5.67;;;4.57;;
7813;SDS011;3952;48.364;16.022;2023-07-20T02:56:22;4.50;;;4.20;;
7813;SDS011;3952;48.364;16.022;2023-07-20T02:58:50;5.00;;;4.70;;
7813;SDS011;3952;48.364;16.022;2023-07-20T03:01:18;5.80;;;4.47;;
7813;SDS011;3952;48.364;16.022;2023-07-20T03:03:45;5.13;;;4.73;;
7813;SDS011;3952;48.364;16.022;2023-07-20T03:06:13;4.97;;;4.60;;
7813;SDS011;3952;48.364;16.022;2023-07-20T03:08:40;4.53;;;4.23;;
7813;SDS011;3952;48.364;16.022;2023-07-20T03:11:12;5.07;;;4.60;;
7813;SDS011;3952;48.364;16.022;2023-07-20T03:13:40;4.63;;;4.30;;
7813;SDS011;3952;48.364;16.022;2023-07-20T03:16:10;4.80;;;4.50;;
7813;SDS011;3952;48.364;16.022;2023-07-20T03:18:40;5.10;;;4.10;;
7813;SDS011;3952;48.364;16.022;2023-07-20T03:21:08;5.57;;;4.47;;
7813;SDS011;3952;48.364;16.022;2023-07-20T03:23:36;5.10;;;4.60;;
7813;SDS011;3952;48.364;16.022;2023-07-20T03:26:04;4.33;;;3.97;;
7813;SDS011;3952;48.364;16.022;2023-07-20T03:28:33;4.33;;;4.13;;
7813;SDS011;3952;48.364;16.022;2023-07-20T03:31:00;4.60;;;4.20;;
7813;SDS011;3952;48.364;16.022;2023-07-20T03:33:29;4.73;;;4.43;;
7813;SDS011;3952;48.364;16.022;2023-07-20T03:35:57;4.57;;;4.17;;
7813;SDS011;3952;48.364;16.022;2023-07-20T03:38:24;5.47;;;4.70;;
7813;SDS011;3952;48.364;16.022;2023-07-20T03:40:53;4.83;;;4.53;;
7813;SDS011;3952;48.364;16.022;2023-07-20T03:43:21;3.83;;;3.60;;
7813;SDS011;3952;48.364;16.022;2023-07-20T03:45:48;6.83;;;3.93;;
7813;SDS011;3952;48.364;16.022;2023-07-20T03:48:15;4.50;;;4.17;;
7813;SDS011;3952;48.364;16.022;2023-07-20T03:50:46;6.67;;;4.53;;
7813;SDS011;3952;48.364;16.022;2023-07-20T03:53:14;4.43;;;4.13;;
7813;SDS011;3952;48.364;16.022;2023-07-20T03:55:44;4.50;;;4.20;;
7813;SDS011;3952;48.364;16.022;2023-07-20T03:58:12;4.13;;;3.83;;
7813;SDS011;3952;48.364;16.022;2023-07-20T04:00:39;4.67;;;4.00;;
7813;SDS011;3952;48.364;16.022;2023-07-20T04:03:06;4.73;;;4.43;;
7813;SDS011;3952;48.364;16.022;2023-07-20T04:05:33;4.53;;;4.13;;
7813;SDS011;3952;48.364;16.022;2023-07-20T04:08:02;4.60;;;3.93;;
7813;SDS011;3952;48.364;16.022;2023-07-20T04:10:30;5.13;;;4.73;;
7813;SDS011;3952;48.364;16.022;2023-07-20T04:12:57;4.67;;;4.27;;
7813;SDS011;3952;48.364;16.022;2023-07-20T04:15:24;3.97;;;3.77;;
7813;SDS011;3952;48.364;16.022;2023-07-20T04:17:51;4.20;;;3.87;;
7813;SDS011;3952;48.364;16.022;2023-07-20T04:20:18;4.63;;;4.33;;
7813;SDS011;3952;48.364;16.022;2023-07-20T04:22:46;4.30;;;3.73;;
7813;SDS011;3952;48.364;16.022;2023-07-20T04:25:15;4.40;;;4.00;;
7813;SDS011;3952;48.364;16.022;2023-07-20T04:27:42;4.17;;;3.87;;
7813;SDS011;3952;48.364;16.022;2023-07-20T04:30:10;4.40;;;4.00;;
7813;SDS011;3952;48.364;16.022;2023-07-20T04:32:38;4.37;;;4.07;;
7813;SDS011;3952;48.364;16.022;2023-07-20T04:35:16;4.30;;;4.00;;
7813;SDS011;3952;48.364;16.022;2023-07-20T04:37:44;3.73;;;3.53;;
7813;SDS011;3952;48.364;16.022;2023-07-20T04:40:12;3.80;;;3.60;;
7813;SDS011;3952;48.364;16.022;2023-07-20T04:42:41;4.30;;;4.00;;
7813;SDS011;3952;48.364;16.022;2023-07-20T04:45:08;3.93;;;3.53;;
7813;SDS011;3952;48.364;16.022;2023-07-20T04:47:36;4.50;;;4.07;;
7813;SDS011;3952;48.364;16.022;2023-07-20T04:50:03;3.80;;;3.50;;
7813;SDS011;3952;48.364;16.022;2023-07-20T04:52:31;4.17;;;3.83;;
7813;SDS011;3952;48.364;16.022;2023-07-20T04:54:58;5.27;;;3.63;;
7813;SDS011;3952;48.364;16.022;2023-07-20T04:57:25;4.87;;;3.30;;
7813;SDS011;3952;48.364;16.022;2023-07-20T04:59:54;3.23;;;3.03;;
7813;SDS011;3952;48.364;16.022;2023-07-20T05:02:21;5.20;;;3.50;;
7813;SDS011;3952;48.364;16.022;2023-07-20T05:04:48;3.07;;;2.87;;
7813;SDS011;3952;48.364;16.022;2023-07-20T05:07:15;3.13;;;2.93;;
7813;SDS011;3952;48.364;16.022;2023-07-20T05:09:43;16.00;;;4.50;;
7813;SDS011;3952;48.364;16.022;2023-07-20T05:12:10;8.80;;;3.70;;
7813;SDS011;3952;48.364;16.022;2023-07-20T05:14:37;3.50;;;3.30;;
7813;SDS011;3952;48.364;16.022;2023-07-20T05:17:06;3.07;;;2.97;;
7813;SDS011;3952;48.364;16.022;2023-07-20T05:19:33;3.33;;;3.13;;
7813;SDS011;3952;48.364;16.022;2023-07-20T05:22:01;8.13;;;3.40;;
7813;SDS011;3952;48.364;16.022;2023-07-20T05:24:28;11.83;;;3.37;;
7813;SDS011;3952;48.364;16.022;2023-07-20T05:26:55;4.00;;;3.20;;
7813;SDS011;3952;48.364;16.022;2023-07-20T05:29:22;3.37;;;3.13;;
7813;SDS011;3952;48.364;16.022;2023-07-20T05:31:49;10.87;;;3.70;;
7813;SDS011;3952;48.364;16.022;2023-07-20T05:34:18;13.97;;;3.60;;
7813;SDS011;3952;48.364;16.022;2023-07-20T05:39:37;13.73;;;3.53;;
7813;SDS011;3952;48.364;16.022;2023-07-20T05:42:05;3.60;;;3.30;;
7813;SDS011;3952;48.364;16.022;2023-07-20T05:44:32;3.17;;;2.87;;
7813;SDS011;3952;48.364;16.022;2023-07-20T05:46:59;4.80;;;2.90;;
7813;SDS011;3952;48.364;16.022;2023-07-20T05:49:29;3.47;;;3.27;;
7813;SDS011;3952;48.364;16.022;2023-07-20T05:51:56;2.80;;;2.60;;
7813;SDS011;3952;48.364;16.022;2023-07-20T05:54:23;3.17;;;2.97;;
7813;SDS011;3952;48.364;16.022;2023-07-20T05:56:52;2.90;;;2.70;;
7813;SDS011;3952;48.364;16.022;2023-07-20T05:59:19;2.97;;;2.63;;
7813;SDS011;3952;48.364;16.022;2023-07-20T06:01:46;3.00;;;2.80;;
7813;SDS011;3952;48.364;16.022;2023-07-20T06:04:15;3.43;;;2.70;;
7813;SDS011;3952;48.364;16.022;2023-07-20T06:06:43;2.90;;;2.63;;
7813;SDS011;3952;48.364;16.022;2023-07-20T06:09:11;3.33;;;3.03;;
7813;SDS011;3952;48.364;16.022;2023-07-20T06:11:39;2.67;;;2.58;;
7813;SDS011;3952;48.364;16.022;2023-07-20T06:14:06;3.00;;;2.80;;
7813;SDS011;3952;48.364;16.022;2023-07-20T06:16:33;2.80;;;2.67;;
7813;SDS011;3952;48.364;16.022;2023-07-20T06:19:00;4.35;;;2.58;;
7813;SDS011;3952;48.364;16.022;2023-07-20T06:21:27;2.58;;;2.42;;
7813;SDS011;3952;48.364;16.022;2023-07-20T06:23:56;2.95;;;2.75;;
7813;SDS011;3952;48.364;16.022;2023-07-20T06:26:24;3.00;;;2.80;;
7813;SDS011;3952;48.364;16.022;2023-07-20T06:28:51;3.05;;;2.85;;
7813;SDS011;3952;48.364;16.022;2023-07-20T06:31:18;4.30;;;2.50;;
7813;SDS011;3952;48.364;16.022;2023-07-20T06:33:45;2.70;;;2.60;;
7813;SDS011;3952;48.364;16.022;2023-07-20T06:36:12;2.70;;;2.55;;
7813;SDS011;3952;48.364;16.022;2023-07-20T06:38:39;2.97;;;2.78;;
7813;SDS011;3952;48.364;16.022;2023-07-20T06:41:07;2.60;;;2.40;;
7813;SDS011;3952;48.364;16.022;2023-07-20T06:43:34;3.35;;;2.67;;
7813;SDS011;3952;48.364;16.022;2023-07-20T06:46:02;7.18;;;2.67;;
7813;SDS011;3952;48.364;16.022;2023-07-20T06:48:29;3.15;;;2.85;;
7813;SDS011;3952;48.364;16.022;2023-07-20T06:50:56;2.75;;;2.58;;
7813;SDS011;3952;48.364;16.022;2023-07-20T06:53:23;2.75;;;2.55;;
7813;SDS011;3952;48.364;16.022;2023-07-20T06:55:50;3.22;;;3.00;;
7813;SDS011;3952;48.364;16.022;2023-07-20T06:58:19;2.85;;;2.42;;
7813;SDS011;3952;48.364;16.022;2023-07-20T07:00:47;3.10;;;2.60;;
7813;SDS011;3952;48.364;16.022;2023-07-20T07:03:14;3.20;;;2.90;;
7813;SDS011;3952;48.364;16.022;2023-07-20T07:05:42;2.83;;;2.63;;
7813;SDS011;3952;48.364;16.022;2023-07-20T07:08:10;2.90;;;2.70;;
7813;SDS011;3952;48.364;16.022;2023-07-20T07:10:38;3.35;;;2.75;;
7813;SDS011;3952;48.364;16.022;2023-07-20T07:13:05;2.50;;;2.40;;
7813;SDS011;3952;48.364;16.022;2023-07-20T07:15:33;3.47;;;2.58;;
7813;SDS011;3952;48.364;16.022;2023-07-20T07:18:01;2.47;;;2.30;;
7813;SDS011;3952;48.364;16.022;2023-07-20T07:20:28;3.00;;;2.90;;
7813;SDS011;3952;48.364;16.022;2023-07-20T07:22:56;2.88;;;2.78;;
7813;SDS011;3952;48.364;16.022;2023-07-20T07:25:23;3.70;;;2.53;;
7813;SDS011;3952;48.364;16.022;2023-07-20T07:27:51;2.90;;;2.70;;
7813;SDS011;3952;48.364;16.022;2023-07-20T07:30:19;3.75;;;2.97;;
7813;SDS011;3952;48.364;16.022;2023-07-20T07:32:48;2.35;;;2.25;;
7813;SDS011;3952;48.364;16.022;2023-07-20T07:35:15;5.22;;;2.63;;
7813;SDS011;3952;48.364;16.022;2023-07-20T07:37:42;2.90;;;2.70;;
7813;SDS011;3952;48.364;16.022;2023-07-20T07:40:10;2.33;;;2.20;;
7813;SDS011;3952;48.364;16.022;2023-07-20T07:42:37;2.42;;;2.33;;
7813;SDS011;3952;48.364;16.022;2023-07-20T07:45:05;4.03;;;2.60;;
7813;SDS011;3952;48.364;16.022;2023-07-20T07:47:33;2.90;;;2.70;;
7813;SDS011;3952;48.364;16.022;2023-07-20T07:50:02;3.63;;;2.63;;
7813;SDS011;3952;48.364;16.022;2023-07-20T07:52:30;3.45;;;2.55;;
7813;SDS011;3952;48.364;16.022;2023-07-20T07:54:57;2.65;;;2.45;;
7813;SDS011;3952;48.364;16.022;2023-07-20T07:57:25;5.38;;;2.78;;
7813;SDS011;3952;48.364;16.022;2023-07-20T07:59:53;2.65;;;2.45;;
7813;SDS011;3952;48.364;16.022;2023-07-20T08:02:20;3.78;;;2.67;;
7813;SDS011;3952;48.364;16.022;2023-07-20T08:04:47;3.70;;;2.40;;
7813;SDS011;3952;48.364;16.022;2023-07-20T08:07:18;2.67;;;2.47;;
7813;SDS011;3952;48.364;16.022;2023-07-20T08:09:45;2.78;;;2.38;;
7813;SDS011;3952;48.364;16.022;2023-07-20T08:12:12;3.30;;;2.80;;
7813;SDS011;3952;48.364;16.022;2023-07-20T08:14:42;3.20;;;2.80;;
7813;SDS011;3952;48.364;16.022;2023-07-20T08:17:10;2.65;;;2.45;;
7813;SDS011;3952;48.364;16.022;2023-07-20T08:19:37;2.78;;;2.67;;
7813;SDS011;3952;48.364;16.022;2023-07-20T08:22:06;3.53;;;2.75;;
7813;SDS011;3952;48.364;16.022;2023-07-20T08:24:38;2.80;;;2.60;;
7813;SDS011;3952;48.364;16.022;2023-07-20T08:27:06;2.70;;;2.50;;
7813;SDS011;3952;48.364;16.022;2023-07-20T08:29:33;4.03;;;2.47;;
7813;SDS011;3952;48.364;16.022;2023-07-20T08:32:01;3.17;;;2.72;;
7813;SDS011;3952;48.364;16.022;2023-07-20T08:34:29;2.58;;;2.38;;
7813;SDS011;3952;48.364;16.022;2023-07-20T08:36:56;2.35;;;2.25;;
7813;SDS011;3952;48.364;16.022;2023-07-20T08:39:24;2.55;;;2.45;;
7813;SDS011;3952;48.364;16.022;2023-07-20T08:41:53;2.78;;;2.60;;
7813;SDS011;3952;48.364;16.022;2023-07-20T08:44:22;2.58;;;2.33;;
7813;SDS011;3952;48.364;16.022;2023-07-20T08:46:52;3.22;;;2.45;;
7813;SDS011;3952;48.364;16.022;2023-07-20T08:49:20;2.75;;;2.58;;
7813;SDS011;3952;48.364;16.022;2023-07-20T08:51:48;2.67;;;2.58;;
7813;SDS011;3952;48.364;16.022;2023-07-20T08:54:16;2.70;;;2.50;;
7813;SDS011;3952;48.364;16.022;2023-07-20T08:56:44;5.13;;;2.40;;
7813;SDS011;3952;48.364;16.022;2023-07-20T08:59:14;2.30;;;2.10;;
7813;SDS011;3952;48.364;16.022;2023-07-20T09:01:44;3.38;;;2.53;;
7813;SDS011;3952;48.364;16.022;2023-07-20T09:04:12;2.45;;;2.30;;
7813;SDS011;3952;48.364;16.022;2023-07-20T09:06:39;2.60;;;2.40;;
7813;SDS011;3952;48.364;16.022;2023-07-20T09:09:07;2.53;;;2.33;;
7813;SDS011;3952;48.364;16.022;2023-07-20T09:11:34;4.07;;;2.42;;
7813;SDS011;3952;48.364;16.022;2023-07-20T09:14:04;3.00;;;2.70;;
7813;SDS011;3952;48.364;16.022;2023-07-20T09:16:36;2.20;;;2.00;;
7813;SDS011;3952;48.364;16.022;2023-07-20T09:19:15;2.25;;;2.05;;
7813;SDS011;3952;48.364;16.022;2023-07-20T09:21:44;2.15;;;2.05;;
7813;SDS011;3952;48.364;16.022;2023-07-20T09:24:12;2.38;;;2.25;;
7813;SDS011;3952;48.364;16.022;2023-07-20T09:26:41;5.93;;;2.47;;
7813;SDS011;3952;48.364;16.022;2023-07-20T09:29:09;2.40;;;2.20;;
7813;SDS011;3952;48.364;16.022;2023-07-20T09:31:38;9.63;;;2.80;;
7813;SDS011;3952;48.364;16.022;2023-07-20T09:34:06;23.05;;;3.53;;
7813;SDS011;3952;48.364;16.022;2023-07-20T09:36:33;3.30;;;1.90;;
7813;SDS011;3952;48.364;16.022;2023-07-20T09:39:03;2.15;;;1.73;;
7813;SDS011;3952;48.364;16.022;2023-07-20T09:41:30;2.08;;;1.98;;
7813;SDS011;3952;48.364;16.022;2023-07-20T09:44:07;2.45;;;2.25;;
7813;SDS011;3952;48.364;16.022;2023-07-20T09:46:45;2.25;;;2.15;;
7813;SDS011;3952;48.364;16.022;2023-07-20T09:49:12;4.60;;;2.20;;
7813;SDS011;3952;48.364;16.022;2023-07-20T09:51:40;3.50;;;2.38;;
7813;SDS011;3952;48.364;16.022;2023-07-20T09:54:08;1.88;;;1.77;;
7813;SDS011;3952;48.364;16.022;2023-07-20T09:56:38;2.58;;;2.33;;
7813;SDS011;3952;48.364;16.022;2023-07-20T09:59:07;2.42;;;2.22;;
7813;SDS011;3952;48.364;16.022;2023-07-20T10:01:34;7.38;;;2.40;;
7813;SDS011;3952;48.364;16.022;2023-07-20T10:04:05;6.07;;;2.20;;
7813;SDS011;3952;48.364;16.022;2023-07-20T10:06:35;6.78;;;2.63;;
7813;SDS011;3952;48.364;16.022;2023-07-20T10:09:05;10.02;;;2.20;;
7813;SDS011;3952;48.364;16.022;2023-07-20T10:11:35;2.03;;;1.92;;
7813;SDS011;3952;48.364;16.022;2023-07-20T10:14:03;21.63;;;2.63;;
7813;SDS011;3952;48.364;16.022;2023-07-20T10:16:34;2.13;;;1.83;;
7813;SDS011;3952;48.364;16.022;2023-07-20T10:19:05;2.63;;;1.65;;
7813;SDS011;3952;48.364;16.022;2023-07-20T10:21:41;9.40;;;2.60;;
7813;SDS011;3952;48.364;16.022;2023-07-20T10:24:12;5.45;;;2.00;;
7813;SDS011;3952;48.364;16.022;2023-07-20T10:26:40;2.58;;;1.83;;
7813;SDS011;3952;48.364;16.022;2023-07-20T10:29:07;2.10;;;2.00;;
7813;SDS011;3952;48.364;16.022;2023-07-20T10:31:35;1.90;;;1.80;;
7813;SDS011;3952;48.364;16.022;2023-07-20T10:34:05;3.05;;;2.10;;
7813;SDS011;3952;48.364;16.022;2023-07-20T10:36:33;2.92;;;1.67;;
7813;SDS011;3952;48.364;16.022;2023-07-20T10:39:13;2.10;;;2.00;;
7813;SDS011;3952;48.364;16.022;2023-07-20T10:41:49;1.92;;;1.70;;
7813;SDS011;3952;48.364;16.022;2023-07-20T10:44:25;2.58;;;2.00;;
7813;SDS011;3952;48.364;16.022;2023-07-20T10:46:58;2.58;;;1.67;;
7813;SDS011;3952;48.364;16.022;2023-07-20T10:49:28;2.17;;;2.08;;
7813;SDS011;3952;48.364;16.022;2023-07-20T10:51:56;2.60;;;2.05;;
7813;SDS011;3952;48.364;16.022;2023-07-20T10:54:34;2.08;;;1.70;;
7813;SDS011;3952;48.364;16.022;2023-07-20T11:00:09;8.93;;;2.45;;
7813;SDS011;3952;48.364;16.022;2023-07-20T11:02:44;2.55;;;2.35;;
7813;SDS011;3952;48.364;16.022;2023-07-20T11:05:33;3.65;;;2.33;;
7813;SDS011;3952;48.364;16.022;2023-07-20T11:08:03;2.85;;;2.60;;
7813;SDS011;3952;48.364;16.022;2023-07-20T11:10:31;6.43;;;2.83;;
7813;SDS011;3952;48.364;16.022;2023-07-20T11:16:01;2.20;;;2.10;;
7813;SDS011;3952;48.364;16.022;2023-07-20T11:18:30;3.33;;;2.60;;
7813;SDS011;3952;48.364;16.022;2023-07-20T11:21:08;2.78;;;2.40;;
7813;SDS011;3952;48.364;16.022;2023-07-20T11:23:37;2.20;;;2.10;;
7813;SDS011;3952;48.364;16.022;2023-07-20T11:26:05;4.38;;;2.38;;
7813;SDS011;3952;48.364;16.022;2023-07-20T11:28:33;2.45;;;2.25;;
7813;SDS011;3952;48.364;16.022;2023-07-20T11:31:01;3.63;;;2.47;;
7813;SDS011;3952;48.364;16.022;2023-07-20T11:33:28;8.95;;;2.25;;
7813;SDS011;3952;48.364;16.022;2023-07-20T11:35:55;7.13;;;2.47;;
7813;SDS011;3952;48.364;16.022;2023-07-20T11:38:24;3.72;;;2.38;;
7813;SDS011;3952;48.364;16.022;2023-07-20T11:40:52;2.35;;;2.25;;
7813;SDS011;3952;48.364;16.022;2023-07-20T11:43:19;2.65;;;2.28;;
7813;SDS011;3952;48.364;16.022;2023-07-20T11:45:49;2.10;;;2.00;;
7813;SDS011;3952;48.364;16.022;2023-07-20T11:48:16;4.90;;;2.10;;
7813;SDS011;3952;48.364;16.022;2023-07-20T11:50:43;4.80;;;2.28;;
7813;SDS011;3952;48.364;16.022;2023-07-20T11:53:11;9.48;;;2.65;;
7813;SDS011;3952;48.364;16.022;2023-07-20T11:55:41;2.10;;;1.88;;
7813;SDS011;3952;48.364;16.022;2023-07-20T11:58:09;3.58;;;2.10;;
7813;SDS011;3952;48.364;16.022;2023-07-20T12:00:37;5.55;;;2.05;;
7813;SDS011;3952;48.364;16.022;2023-07-20T12:03:06;2.13;;;2.03;;
7813;SDS011;3952;48.364;16.022;2023-07-20T12:05:34;3.15;;;2.10;;
7813;SDS011;3952;48.364;16.022;2023-07-20T12:08:01;4.15;;;1.80;;
7813;SDS011;3952;48.364;16.022;2023-07-20T12:10:29;2.40;;;2.25;;
7813;SDS011;3952;48.364;16.022;2023-07-20T12:13:02;3.63;;;1.90;;
7813;SDS011;3952;48.364;16.022;2023-07-20T12:15:30;1.73;;;1.63;;
7813;SDS011;3952;48.364;16.022;2023-07-20T12:17:58;2.00;;;1.90;;
7813;SDS011;3952;48.364;16.022;2023-07-20T12:20:27;1.92;;;1.83;;
7813;SDS011;3952;48.364;16.022;2023-07-20T12:22:56;6.80;;;1.98;;
7813;SDS011;3952;48.364;16.022;2023-07-20T12:25:36;4.28;;;2.17;;
7813;SDS011;3952;48.364;16.022;2023-07-20T12:28:07;4.15;;;2.25;;
7813;SDS011;3952;48.364;16.022;2023-07-20T12:30:35;2.45;;;2.00;;
7813;SDS011;3952;48.364;16.022;2023-07-20T12:33:03;3.72;;;2.40;;
7813;SDS011;3952;48.364;16.022;2023-07-20T12:35:31;2.45;;;2.25;;
7813;SDS011;3952;48.364;16.022;2023-07-20T12:37:58;2.60;;;2.25;;
7813;SDS011;3952;48.364;16.022;2023-07-20T12:40:25;6.60;;;2.35;;
7813;SDS011;3952;48.364;16.022;2023-07-20T12:42:53;3.70;;;1.90;;
7813;SDS011;3952;48.364;16.022;2023-07-20T12:45:21;8.80;;;2.10;;
7813;SDS011;3952;48.364;16.022;2023-07-20T12:47:48;2.28;;;1.90;;
7813;SDS011;3952;48.364;16.022;2023-07-20T12:50:16;5.32;;;1.90;;
7813;SDS011;3952;48.364;16.022;2023-07-20T12:52:43;2.15;;;1.67;;
7813;SDS011;3952;48.364;16.022;2023-07-20T12:55:10;4.10;;;1.95;;
7813;SDS011;3952;48.364;16.022;2023-07-20T12:57:37;2.58;;;1.77;;
7813;SDS011;3952;48.364;16.022;2023-07-20T13:00:05;4.13;;;1.90;;
7813;SDS011;3952;48.364;16.022;2023-07-20T13:02:38;2.53;;;2.05;;
7813;SDS011;3952;48.364;16.022;2023-07-20T13:05:05;1.80;;;1.70;;
7813;SDS011;3952;48.364;16.022;2023-07-20T13:07:33;1.63;;;1.52;;
7813;SDS011;3952;48.364;16.022;2023-07-20T13:10:02;1.50;;;1.50;;
7813;SDS011;3952;48.364;16.022;2023-07-20T13:12:32;1.65;;;1.52;;
7813;SDS011;3952;48.364;16.022;2023-07-20T13:15:01;19.63;;;3.25;;
7813;SDS011;3952;48.364;16.022;2023-07-20T13:17:31;2.17;;;2.08;;
7813;SDS011;3952;48.364;16.022;2023-07-20T13:19:59;2.25;;;2.15;;
7813;SDS011;3952;48.364;16.022;2023-07-20T13:22:27;3.22;;;2.17;;
7813;SDS011;3952;48.364;16.022;2023-07-20T13:24:55;4.35;;;2.33;;
7813;SDS011;3952;48.364;16.022;2023-07-20T13:27:22;2.05;;;1.95;;
7813;SDS011;3952;48.364;16.022;2023-07-20T13:29:51;1.90;;;1.80;;
7813;SDS011;3952;48.364;16.022;2023-07-20T13:32:18;2.72;;;2.38;;
7813;SDS011;3952;48.364;16.022;2023-07-20T13:34:46;2.20;;;1.83;;
7813;SDS011;3952;48.364;16.022;2023-07-20T13:37:15;2.10;;;2.00;;
7813;SDS011;3952;48.364;16.022;2023-07-20T13:39:42;2.05;;;1.88;;
7813;SDS011;3952;48.364;16.022;2023-07-20T13:42:10;2.25;;;2.15;;
7813;SDS011;3952;48.364;16.022;2023-07-20T13:44:37;2.35;;;2.10;;
7813;SDS011;3952;48.364;16.022;2023-07-20T13:47:05;1.90;;;1.80;;
7813;SDS011;3952;48.364;16.022;2023-07-20T13:49:32;5.13;;;2.00;;
7813;SDS011;3952;48.364;16.022;2023-07-20T13:52:00;1.77;;;1.67;;
7813;SDS011;3952;48.364;16.022;2023-07-20T13:54:28;2.38;;;1.65;;
7813;SDS011;3952;48.364;16.022;2023-07-20T13:56:56;2.15;;;1.80;;
7813;SDS011;3952;48.364;16.022;2023-07-20T13:59:23;1.35;;;1.35;;
7813;SDS011;3952;48.364;16.022;2023-07-20T14:01:50;1.15;;;1.15;;
7813;SDS011;3952;48.364;16.022;2023-07-20T14:04:17;1.85;;;1.75;;
7813;SDS011;3952;48.364;16.022;2023-07-20T14:06:45;2.08;;;1.77;;
7813;SDS011;3952;48.364;16.022;2023-07-20T14:09:12;2.03;;;1.83;;
7813;SDS011;3952;48.364;16.022;2023-07-20T14:11:41;1.77;;;1.67;;
7813;SDS011;3952;48.364;16.022;2023-07-20T14:14:09;1.70;;;1.60;;
7813;SDS011;3952;48.364;16.022;2023-07-20T14:16:36;2.60;;;1.63;;
7813;SDS011;3952;48.364;16.022;2023-07-20T14:19:03;1.60;;;1.50;;
7813;SDS011;3952;48.364;16.022;2023-07-20T14:21:31;2.00;;;1.90;;
7813;SDS011;3952;48.364;16.022;2023-07-20T14:23:58;1.77;;;1.67;;
7813;SDS011;3952;48.364;16.022;2023-07-20T14:26:25;1.52;;;1.42;;
7813;SDS011;3952;48.364;16.022;2023-07-20T14:28:54;2.33;;;2.13;;
7813;SDS011;3952;48.364;16.022;2023-07-20T14:31:22;2.97;;;1.75;;
7813;SDS011;3952;48.364;16.022;2023-07-20T14:33:49;1.90;;;1.85;;
7813;SDS011;3952;48.364;16.022;2023-07-20T14:36:16;1.77;;;1.67;;
7813;SDS011;3952;48.364;16.022;2023-07-20T14:38:43;1.85;;;1.70;;
7813;SDS011;3952;48.364;16.022;2023-07-20T14:41:10;2.03;;;1.80;;
7813;SDS011;3952;48.364;16.022;2023-07-20T14:43:37;2.75;;;1.88;;
7813;SDS011;3952;48.364;16.022;2023-07-20T14:46:06;1.58;;;1.48;;
7813;SDS011;3952;48.364;16.022;2023-07-20T14:48:33;2.28;;;2.03;;
7813;SDS011;3952;48.364;16.022;2023-07-20T14:51:00;2.00;;;1.88;;
7813;SDS011;3952;48.364;16.022;2023-07-20T14:53:28;1.70;;;1.60;;
7813;SDS011;3952;48.364;16.022;2023-07-20T14:55:59;1.88;;;1.77;;
7813;SDS011;3952;48.364;16.022;2023-07-20T14:58:27;1.67;;;1.58;;
7813;SDS011;3952;48.364;16.022;2023-07-20T15:00:54;1.70;;;1.70;;
7813;SDS011;3952;48.364;16.022;2023-07-20T15:03:22;2.15;;;2.00;;
7813;SDS011;3952;48.364;16.022;2023-07-20T15:05:50;1.90;;;1.60;;
7813;SDS011;3952;48.364;16.022;2023-07-20T15:08:17;2.03;;;1.80;;
7813;SDS011;3952;48.364;16.022;2023-07-20T15:10:45;1.50;;;1.40;;
7813;SDS011;3952;48.364;16.022;2023-07-20T15:13:12;2.28;;;1.50;;
7813;SDS011;3952;48.364;16.022;2023-07-20T15:15:40;1.60;;;1.50;;
7813;SDS011;3952;48.364;16.022;2023-07-20T15:18:08;1.75;;;1.65;;